Pagrindinis puslapis
METAR-TAF:

METAR-TAF

Oro uostai :

Ankoridžas, Aliaska, Jungtinės Amerikos Valstijos

platuma: 61-13N, ilguma: 149-51W, Aukštis: 42 m

Dabartinis oras

Ataskaita buvo paskelbta 54 minutes, ne 19:53 UTC
Vėjas 3 kt iš Šiaurės Rytų
Temperatūra -3°C
Drėgmė 93%
Slėgis 1017 hPa
Matomumas: 4.0 km
Apsiniaukę ne aukštis 400 ft
rūkana

METAR: PAMR 281953Z 04003KT 2 1/2SM BR OVC004 M03/M04 A3004 RMK AO2 SLP175 I1000 T10281044

Laikas: 12:47 (20:47 UTC)


TAF: trūkstamas

Orai ataskaitas ir orų prognozės (METAR, TAF).

turimą stotys yra geltonos ir raudonos taškus žemėlapyje.

Perkelti pele per norėdami pamatyti stoties vardą.

Tada spustelėkite, norėdami matyti oro stebėjimo ir prognozės.

Norėdami pakeisti žemėlapį: spustelėkite ant žalios mygtukų su juodo kryžiaus žemyn,; žalią mygtuką su brūkšneliu, jei norite nutolinti; arba žalių rodyklių gretimoms žemėlapius.


METAR-TAF: